Latest Weather Observations for Jabiru

IDD60801

Issued at 12:31 pm CST Tuesday 9 February 2016 (issued every 30 minutes, with the page automatically refreshed every 10 minutes)

About weather observations | Map of weather stations | Latest weather observations for NT | Other Formats
Station Details ID: 014198 Name: JABIRU AIRPORT Lat: -12.66 Lon: 132.89 Height: 26.5 m
Data from the previous 72 hours. | See also: Recent months at Jabiru
Date/Time
CST
Temp
°C
App
Temp
°C
Dew
Point
Rel
Hum
%
Delta-T
°C
Wind Press
QNH
hPa
Press
MSL
hPa
Rain
since 9 am
mm
Dir
 
Spd
km/h
Gust
km/h
Spd
kts
Gust
kts
09/12:30pm 34.0 37.4 23.4 54 7.4 SSW 11 19 6 10 1007.7 1007.5 -
09/11:00am 32.4 36.4 24.4 62 5.6 WSW 11 20 6 11 1009.2 1009.0 0.0
09/10:30am 31.7 35.6 24.3 65 5.2 SW 11 15 6 8 1009.6 1009.4 0.0
09/10:00am 31.5 35.1 24.4 66 5.0 SW 13 19 7 10 1009.7 1009.5 0.0
09/09:30am 30.4 34.4 25.0 73 3.8 SW 13 20 7 11 1009.9 1009.7 0.0
09/09:00am 30.0 34.8 25.1 75 3.5 S 9 17 5 9 1009.9 1009.7 0.0
09/08:30am 29.0 33.4 25.0 79 2.8 S 11 15 6 8 1009.7 1009.5 0.0
09/08:00am 28.4 33.6 24.8 81 2.5 SSW 6 9 3 5 1009.4 1009.2 0.0
09/07:30am 27.4 32.6 24.8 86 1.8 S 6 7 3 4 1009.0 1008.8 0.0
09/07:00am 27.0 33.3 24.8 88 1.5 CALM 0 0 0 0 1008.7 1008.5 0.0
09/06:30am 26.9 33.3 24.9 89 1.4 CALM 0 4 0 2 1008.4 1008.2 0.0
09/06:00am 26.9 33.3 24.9 89 1.4 CALM 0 0 0 0 1008.2 1008.0 0.0
09/05:30am 27.0 32.5 24.6 87 1.7 SE 4 6 2 3 1007.8 1007.6 0.0
09/05:00am 27.1 33.3 24.6 86 1.7 CALM 0 0 0 0 1007.5 1007.3 0.0
09/04:30am 27.2 33.2 24.3 84 2.0 CALM 0 0 0 0 1007.3 1007.1 0.0
09/04:00am 27.3 33.0 23.7 81 2.5 CALM 0 0 0 0 1007.1 1006.9 0.0
09/03:30am 27.1 33.3 24.6 86 1.7 CALM 0 0 0 0 1007.1 1006.9 0.0
09/03:00am 27.2 33.5 24.7 86 1.7 CALM 0 0 0 0 1007.0 1006.8 0.0
09/02:30am 27.5 33.3 23.9 81 2.5 CALM 0 0 0 0 1007.3 1007.1 0.0
09/02:00am 27.3 33.4 24.4 84 2.0 CALM 0 0 0 0 1007.5 1007.3 0.0
09/01:30am 27.5 33.6 24.4 83 2.2 CALM 0 0 0 0 1007.7 1007.5 0.0
09/01:00am 27.9 33.9 24.3 81 2.5 CALM 0 0 0 0 1008.1 1007.9 0.0
09/12:30am 28.0 34.0 24.2 80 2.6 CALM 0 0 0 0 1008.5 1008.3 0.0
09/12:00am 28.2 34.0 24.0 78 2.9 CALM 0 0 0 0 1008.7 1008.5 0.0
 
Date/Time
CST
Temp
°C
App
Temp
°C
Dew
Point
Rel
Hum
%
Delta-T
°C
Wind Press
QNH
hPa
Press
MSL
hPa
Rain
since 9 am
mm
Dir
 
Spd
km/h
Gust
km/h
Spd
kts
Gust
kts
08/11:30pm 28.3 34.0 23.7 76 3.2 CALM 0 0 0 0 1009.0 1008.8 0.0
08/11:00pm 28.2 32.5 23.6 76 3.2 NNE 7 7 4 4 1009.1 1008.9 0.0
08/10:30pm 28.2 32.6 23.8 77 3.0 NNE 7 9 4 5 1008.9 1008.7 0.0
08/10:00pm 28.1 32.6 23.7 77 3.0 NNE 6 7 3 4 1008.6 1008.4 0.0
08/09:30pm 28.3 32.7 23.4 75 3.4 WSW 6 7 3 4 1008.3 1008.1 0.0
08/09:00pm 28.2 33.1 23.6 76 3.2 SE 4 9 2 5 1007.9 1007.7 0.0
08/08:30pm 28.1 33.5 23.2 74 3.4 CALM 0 0 0 0 1007.3 1007.1 0.0
08/08:00pm 27.8 32.0 23.2 76 3.1 NNE 6 7 3 4 1007.1 1006.9 0.0
08/07:30pm 27.6 31.5 23.0 76 3.1 NNE 7 11 4 6 1006.8 1006.6 0.0
08/07:00pm 27.7 29.7 22.2 72 3.7 WNW 15 22 8 12 1006.8 1006.6 0.0
08/06:30pm 28.8 29.2 21.8 66 4.7 WNW 22 32 12 17 1006.6 1006.4 0.0
08/06:00pm 31.1 33.7 21.9 58 6.2 NW 11 15 6 8 1005.9 1005.7 0.0
08/05:30pm 31.3 33.3 22.9 61 5.8 NNE 17 26 9 14 1005.6 1005.4 0.0
08/05:00pm 35.8 38.6 21.6 43 9.7 W 9 15 5 8 1005.2 1005.0 0.0
08/04:30pm 35.9 39.2 22.5 46 9.3 SSE 9 15 5 8 1005.1 1004.9 0.0
08/04:00pm 35.1 37.4 21.4 45 9.3 SSW 11 17 6 9 1005.2 1005.0 0.0
08/03:30pm 35.4 37.8 21.6 44 9.4 SW 11 19 6 10 1005.6 1005.4 0.0
08/03:00pm 35.4 38.8 22.0 45 9.2 SSW 7 11 4 6 1006.0 1005.8 0.0
08/02:30pm 34.6 37.8 23.0 51 8.1 W 11 20 6 11 1006.7 1006.5 0.0
08/02:00pm 34.5 38.5 23.8 53 7.5 S 9 13 5 7 1007.0 1006.8 0.0
08/01:30pm 33.9 37.4 23.6 55 7.2 SE 11 17 6 9 1007.4 1007.2 0.0
08/01:00pm 34.1 39.6 24.7 58 6.6 ESE 4 9 2 5 1007.8 1007.6 0.0
08/12:30pm 33.2 38.0 24.1 59 6.4 SW 6 9 3 5 1008.3 1008.1 0.0
08/12:00pm 32.8 36.9 24.0 60 6.2 S 9 15 5 8 1008.8 1008.6 0.0
08/11:30am 32.3 36.6 24.3 62 5.6 SSW 9 17 5 9 1009.0 1008.8 0.0
08/11:00am 31.9 35.7 23.4 60 5.9 S 9 17 5 9 1009.1 1008.9 0.0
08/10:30am 31.5 34.8 23.9 64 5.3 SSW 13 17 7 9 1009.5 1009.3 0.0
08/10:00am 31.5 35.0 24.9 68 4.6 WSW 15 19 8 10 1009.7 1009.5 0.0
08/09:30am 30.3 35.2 24.7 72 3.9 SSW 7 11 4 6 1009.9 1009.7 0.0
08/09:00am 29.7 35.4 25.0 76 3.3 NNW 4 9 2 5 1009.9 1009.7 0.0
08/08:30am 28.5 33.4 24.3 78 2.9 NNE 6 7 3 4 1009.8 1009.6 0.0
08/08:00am 28.0 33.7 25.0 84 2.1 NNE 4 7 2 4 1009.7 1009.5 0.0
08/07:30am 26.9 32.0 24.9 89 1.4 NNE 7 9 4 5 1009.6 1009.4 0.0
08/07:00am 25.9 30.7 24.5 92 1.0 NNE 7 9 4 5 1009.2 1009.0 0.0
08/06:30am 25.7 31.7 24.3 92 1.0 CALM 0 4 0 2 1008.8 1008.6 0.0
08/06:00am 25.7 31.7 24.3 92 1.0 CALM 0 0 0 0 1008.5 1008.3 0.0
08/05:30am 25.9 32.0 24.5 92 1.0 CALM 0 0 0 0 1008.1 1007.9 0.0
08/05:00am 25.7 30.8 24.1 91 1.1 NNE 4 7 2 4 1007.9 1007.7 0.0
08/04:30am 25.9 32.0 24.5 92 1.0 CALM 0 0 0 0 1007.8 1007.6 0.0
08/04:00am 25.9 31.0 24.1 90 1.2 NE 4 7 2 4 1007.8 1007.6 0.0
08/03:30am 26.2 31.6 25.2 94 0.7 NNE 6 7 3 4 1007.9 1007.7 0.0
08/03:00am 26.3 32.7 24.9 92 1.0 CALM 0 0 0 0 1008.2 1008.0 0.0
08/02:30am 26.3 32.7 24.9 92 1.0 CALM 0 0 0 0 1008.3 1008.1 0.0
08/02:00am 26.5 32.8 24.7 90 1.3 CALM 0 0 0 0 1008.5 1008.3 0.0
08/01:30am 26.5 32.8 24.7 90 1.3 CALM 0 0 0 0 1008.8 1008.6 0.0
08/01:00am 26.5 31.9 24.5 89 1.4 SE 4 7 2 4 1009.3 1009.1 0.0
08/12:30am 26.7 31.7 24.5 88 1.5 SE 6 9 3 5 1009.3 1009.1 0.0
08/12:00am 27.0 31.7 25.0 89 1.4 SSE 9 13 5 7 1009.6 1009.4 0.0
 
Date/Time
CST
Temp
°C
App
Temp
°C
Dew
Point
Rel
Hum
%
Delta-T
°C
Wind Press
QNH
hPa
Press
MSL
hPa
Rain
since 9 am
mm
Dir
 
Spd
km/h
Gust
km/h
Spd
kts
Gust
kts
07/11:30pm 27.7 34.2 25.1 86 1.8 CALM 0 6 0 3 1009.8 1009.6 0.0
07/11:00pm 28.0 33.3 25.0 84 2.1 S 6 7 3 4 1009.8 1009.6 0.0
07/10:30pm 28.3 34.1 24.5 80 2.6 NNE 2 6 1 3 1009.5 1009.3 0.0
07/10:00pm 28.3 34.3 24.3 79 2.8 CALM 0 0 0 0 1009.1 1008.9 0.0
07/09:30pm 28.3 34.3 24.3 79 2.8 CALM 0 6 0 3 1008.9 1008.7 0.0
07/09:00pm 28.0 32.6 24.2 80 2.6 NNE 7 11 4 6 1008.5 1008.3 0.0
07/08:30pm 28.2 33.0 24.2 79 2.8 NW 6 7 3 4 1008.2 1008.0 0.0
07/08:00pm 28.8 33.6 24.4 77 3.1 WNW 7 11 4 6 1007.8 1007.6 0.0
07/07:30pm 28.6 32.5 24.2 77 3.1 WNW 11 17 6 9 1007.7 1007.5 0.0
07/07:00pm 28.8 31.7 24.4 77 3.1 W 17 20 9 11 1007.6 1007.4 0.0
07/06:30pm 28.9 32.0 24.2 76 3.3 SSW 15 24 8 13 1007.5 1007.3 0.0
07/06:00pm 29.8 33.3 22.8 66 4.8 SW 9 15 5 8 1006.7 1006.5 0.0
07/05:30pm 30.3 31.8 22.7 64 5.2 WNW 19 30 10 16 1005.9 1005.7 0.0
07/05:00pm 31.1 32.2 23.7 64 5.1 NW 24 33 13 18 1005.4 1005.2 0.0
07/04:30pm 30.9 33.1 24.8 70 4.3 NNW 22 32 12 17 1005.1 1004.9 0.0
07/04:00pm 31.5 32.3 21.4 55 6.8 NE 19 26 10 14 1004.9 1004.7 0.0
07/03:30pm 34.9 39.0 23.2 50 8.1 NW 7 13 4 7 1005.0 1004.8 0.0
07/03:00pm 35.3 38.5 22.3 47 9.0 SSW 9 15 5 8 1005.1 1004.9 0.0
07/02:30pm 34.7 37.9 22.4 48 8.5 NNE 9 15 5 8 1005.5 1005.3 0.0
07/02:00pm 34.0 37.2 22.4 50 8.0 NNE 9 15 5 8 1006.0 1005.8 0.0
07/01:30pm 33.9 38.2 24.2 57 6.8 S 9 13 5 7 1006.2 1006.0 0.0
07/01:00pm 33.5 37.5 23.8 57 6.8 WNW 9 15 5 8 1006.8 1006.6 0.0
07/12:30pm 32.9 37.1 24.1 60 6.2 WNW 9 13 5 7 1007.4 1007.2 0.0
07/12:00pm 32.7 36.6 24.2 61 6.0 NW 11 15 6 8 1007.9 1007.7 0.0
07/11:30am 31.6 35.9 23.7 63 5.5 NW 7 15 4 8 1008.4 1008.2 0.0
07/11:00am 31.3 35.7 24.4 66 4.8 W 9 11 5 6 1008.6 1008.4 0.0
07/10:30am 31.7 37.5 25.1 68 4.7 N 4 11 2 6 1008.7 1008.5 0.0
07/10:00am 30.7 35.9 25.1 72 3.9 W 7 11 4 6 1008.7 1008.5 0.0
07/09:30am 30.1 35.5 25.2 75 3.5 SSW 6 9 3 5 1008.6 1008.4 0.0
07/09:00am 29.4 34.7 24.9 77 3.2 SW 6 7 3 4 1008.6 1008.4 13.0
07/08:30am 28.5 33.8 24.3 78 2.9 NW 4 6 2 3 1008.5 1008.3 13.0
07/08:00am 28.4 33.6 24.8 81 2.5 NNE 6 7 3 4 1008.3 1008.1 13.0
07/07:30am 27.3 32.7 25.1 88 1.5 NE 6 7 3 4 1007.9 1007.7 13.0
07/07:00am 26.1 31.5 25.2 95 0.6 NNE 6 6 3 3 1007.6 1007.4 13.0
07/06:30am 26.0 31.4 25.1 95 0.6 NNE 6 7 3 4 1007.6 1007.4 13.0
07/06:00am 26.1 31.5 25.1 94 0.7 NNE 6 7 3 4 1007.4 1007.2 13.0
07/05:30am 26.2 31.5 25.2 94 0.7 NNE 7 9 4 5 1007.3 1007.1 13.0
07/05:00am 26.1 31.5 25.1 94 0.7 NNE 6 7 3 4 1007.0 1006.8 13.0
07/04:30am 26.2 31.7 25.3 95 0.6 NNE 6 6 3 3 1007.0 1006.8 13.0
07/04:00am 26.0 31.4 25.1 95 0.6 NE 6 9 3 5 1006.8 1006.6 13.0
07/03:30am 26.1 31.5 25.2 95 0.6 NNE 6 7 3 4 1006.7 1006.5 13.0
07/03:00am 26.1 31.5 25.2 95 0.6 NNE 6 7 3 4 1006.7 1006.5 13.0
07/02:30am 26.2 33.0 25.5 96 0.5 CALM 0 0 0 0 1006.9 1006.7 13.0
07/02:00am 26.1 32.8 25.4 96 0.5 CALM 0 0 0 0 1007.3 1007.1 13.0
07/01:30am 25.9 32.4 25.0 95 0.6 CALM 0 4 0 2 1007.5 1007.3 13.0
07/01:00am 26.0 31.4 25.1 95 0.6 SE 6 7 3 4 1007.8 1007.6 13.0
07/12:30am 26.1 32.7 25.2 95 0.6 CALM 0 0 0 0 1008.1 1007.9 13.0
07/12:00am 26.2 32.8 25.2 94 0.7 CALM 0 0 0 0 1008.2 1008.0 13.0
 
Date/Time
CST
Temp
°C
App
Temp
°C
Dew
Point
Rel
Hum
%
Delta-T
°C
Wind Press
QNH
hPa
Press
MSL
hPa
Rain
since 9 am
mm
Dir
 
Spd
km/h
Gust
km/h
Spd
kts
Gust
kts
06/11:30pm 26.3 32.1 25.1 93 0.8 NW 4 6 2 3 1008.3 1008.1 13.0
06/11:00pm 26.5 32.4 25.3 93 0.8 WNW 4 6 2 3 1008.2 1008.0 13.0
06/10:30pm 26.6 32.0 25.2 92 1.0 W 6 7 3 4 1008.1 1007.9 13.0
06/10:00pm 27.0 32.1 25.0 89 1.4 W 7 11 4 6 1007.7 1007.5 13.0
06/09:30pm 27.3 32.6 25.3 89 1.4 WSW 7 9 4 5 1007.4 1007.2 13.0
06/09:00pm 27.4 32.8 25.4 89 1.4 NW 7 9 4 5 1007.0 1006.8 13.0
06/08:30pm 27.6 33.3 25.0 86 1.8 NNE 4 6 2 3 1006.8 1006.6 13.0
06/08:00pm 27.8 34.3 25.0 85 2.0 CALM 0 0 0 0 1006.3 1006.1 13.0
06/07:30pm 28.0 33.8 25.2 85 2.0 NNE 4 7 2 4 1006.2 1006.0 13.0
06/07:00pm 28.3 34.4 24.5 80 2.6 CALM 0 0 0 0 1006.0 1005.8 13.0
06/06:30pm 28.7 34.3 24.3 77 3.1 NW 2 6 1 3 1005.9 1005.7 13.0
06/06:00pm 29.0 35.0 24.3 76 3.3 CALM 0 0 0 0 1005.7 1005.5 13.0
06/05:30pm 28.7 34.7 24.3 77 3.1 CALM 0 0 0 0 1005.5 1005.3 13.0
06/05:00pm 28.6 33.5 24.4 78 2.9 W 6 9 3 5 1005.2 1005.0 13.0
06/04:30pm 28.4 33.3 24.4 79 2.8 NE 6 7 3 4 1005.4 1005.2 13.0
06/04:00pm 27.9 32.2 23.7 78 2.9 WNW 7 9 4 5 1005.3 1005.1 13.0
06/03:30pm 27.6 32.3 25.0 86 1.8 NW 9 15 5 8 1005.3 1005.1 13.0
06/03:00pm 26.1 30.9 24.5 91 1.1 W 7 9 4 5 1006.0 1005.8 13.0
06/02:30pm 25.6 30.3 24.0 91 1.1 S 6 9 3 5 1006.5 1006.3 13.0
06/02:00pm 25.2 29.1 23.6 91 1.1 SSE 9 11 5 6 1007.6 1007.4 12.2
06/01:30pm 26.0 30.0 25.1 95 0.6 WSW 13 17 7 9 1008.1 1007.9 11.8
06/01:00pm 26.1 29.0 24.5 91 1.1 WSW 17 24 9 13 1008.3 1008.1 9.2

Other Formats:

Comma delimited format used in spreadsheet applications
http://www.bom.gov.au/fwo/IDD60801/IDD60801.94137.axf

JavaScript Object Notation format (JSON) in row-major order
http://www.bom.gov.au/fwo/IDD60801/IDD60801.94137.json